Time;durP1;ratioP1;P1;durP2;ratioP2;P2;SDS_P1;SDS_P2;PMS_P1;PMS_P2;Temp;Humidity;BMP_temperature;BMP_pressure;BME280_temperature;BME280_humidity;BME280_pressure;Samples;Min_cycle;Max_cycle;Signal;HPM_P1;HPM_P2
2022/12/04 00:01:53;;;;;;;92.75;27.67;;;;;;;0.96;100.00;101463.41;4992466;28;20055;-77
2022/12/04 00:04:18;;;;;;;90.63;28.17;;;;;;;0.96;100.00;101461.56;4995165;28;20074;-77
2022/12/04 00:06:44;;;;;;;85.28;26.92;;;;;;;1.00;100.00;101459.66;5007302;28;20038;-77
2022/12/04 00:09:10;;;;;;;100.07;30.40;;;;;;;0.95;100.00;101445.44;5014538;28;20398;-77
2022/12/04 00:11:35;;;;;;;90.10;29.50;;;;;;;0.98;100.00;101448.94;4985405;28;20108;-78
2022/12/04 00:14:01;;;;;;;92.28;28.08;;;;;;;0.89;100.00;101452.78;4994690;28;20498;-77
2022/12/04 00:16:28;;;;;;;99.38;30.42;;;;;;;0.89;100.00;101442.00;4994395;28;20096;-77
2022/12/04 00:18:54;;;;;;;83.50;29.65;;;;;;;0.84;100.00;101443.09;4993081;28;20057;-77
2022/12/04 00:21:21;;;;;;;94.53;29.23;;;;;;;0.94;100.00;101454.47;5002185;28;20516;-76
2022/12/04 00:23:46;;;;;;;103.78;29.17;;;;;;;0.87;100.00;101437.56;5000303;28;20038;-77
2022/12/04 00:26:14;;;;;;;90.35;28.35;;;;;;;0.93;100.00;101447.31;4998763;28;20144;-77
2022/12/04 00:28:40;;;;;;;79.70;25.52;;;;;;;0.99;100.00;101442.63;4984001;28;20113;-77
2022/12/04 00:31:09;;;;;;;90.75;27.15;;;;;;;0.97;100.00;101443.56;5001400;28;20066;-77
2022/12/04 00:33:35;;;;;;;76.50;24.58;;;;;;;0.85;100.00;101444.84;5006251;28;20056;-77
2022/12/04 00:36:05;;;;;;;85.40;27.45;;;;;;;0.90;100.00;101437.47;4994621;28;20033;-78
2022/12/04 00:38:30;;;;;;;90.90;28.50;;;;;;;0.85;100.00;101439.44;5001174;28;20101;-78
2022/12/04 00:41:02;;;;;;;94.75;29.83;;;;;;;0.88;100.00;101448.31;5018255;28;20077;-77
2022/12/04 00:43:28;;;;;;;84.15;28.48;;;;;;;0.94;100.00;101451.78;5014387;28;20026;-77
2022/12/04 00:45:53;;;;;;;79.43;28.15;;;;;;;0.99;100.00;101442.63;5007104;28;20513;-78
2022/12/04 00:48:19;;;;;;;85.82;26.08;;;;;;;0.95;100.00;101450.84;5015142;28;20034;-77
2022/12/04 00:50:45;;;;;;;72.78;25.73;;;;;;;0.87;100.00;101446.56;5019135;28;20041;-77
2022/12/04 00:53:11;;;;;;;85.15;28.10;;;;;;;0.95;100.00;101443.63;5007096;28;20030;-77
2022/12/04 00:55:38;;;;;;;94.97;28.90;;;;;;;0.88;100.00;101448.31;5014662;28;20038;-79
2022/12/04 00:58:04;;;;;;;89.90;28.55;;;;;;;0.78;100.00;101440.56;4985701;28;20083;-77
2022/12/04 01:00:30;;;;;;;91.68;28.75;;;;;;;0.91;100.00;101429.34;4968844;28;20054;-77
2022/12/04 01:02:55;;;;;;;85.75;27.83;;;;;;;0.97;100.00;101446.28;5015379;28;20038;-77
2022/12/04 01:05:21;;;;;;;83.22;28.48;;;;;;;0.91;100.00;101433.88;5020608;28;20034;-77
2022/12/04 01:07:46;;;;;;;79.32;28.10;;;;;;;0.90;100.00;101443.78;5004644;28;20034;-77
2022/12/04 01:10:12;;;;;;;87.90;29.38;;;;;;;0.90;100.00;101450.97;5001424;28;20053;-78
2022/12/04 01:12:38;;;;;;;89.55;28.80;;;;;;;0.86;100.00;101443.91;4997127;28;20069;-78
2022/12/04 01:15:04;;;;;;;82.30;29.30;;;;;;;1.00;100.00;101444.41;5020756;28;20065;-78
2022/12/04 01:17:30;;;;;;;85.57;29.05;;;;;;;1.02;100.00;101442.53;5018323;28;20049;-77
2022/12/04 01:19:55;;;;;;;87.15;27.42;;;;;;;0.99;100.00;101449.84;5011815;28;20125;-77
2022/12/04 01:22:21;;;;;;;84.38;28.10;;;;;;;1.03;100.00;101449.69;5017999;28;20386;-77
2022/12/04 01:24:46;;;;;;;82.57;27.73;;;;;;;0.85;100.00;101440.34;5001876;28;20030;-77
2022/12/04 01:27:12;;;;;;;91.47;28.95;;;;;;;0.90;100.00;101443.78;4985108;28;20093;-77
2022/12/04 01:29:37;;;;;;;91.72;28.95;;;;;;;0.85;100.00;101443.03;4997278;28;20042;-76
2022/12/04 01:32:03;;;;;;;81.95;27.50;;;;;;;0.83;100.00;101447.56;5010282;28;20099;-78
2022/12/04 01:34:29;;;;;;;86.95;26.58;;;;;;;0.90;100.00;101443.78;4987645;28;20042;-77
2022/12/04 01:36:54;;;;;;;83.10;28.08;;;;;;;0.89;100.00;101450.09;4999094;28;20034;-77
2022/12/04 01:39:19;;;;;;;92.22;28.15;;;;;;;0.96;100.00;101444.53;5016135;28;20144;-77
2022/12/04 01:41:45;;;;;;;93.15;29.13;;;;;;;0.96;100.00;101448.09;5015048;28;20441;-77
2022/12/04 01:44:21;;;;;;;85.20;29.73;;;;;;;0.91;100.00;101445.53;5002255;28;20034;-77
2022/12/04 01:46:56;;;;;;;88.38;28.17;;;;;;;0.98;100.00;101448.06;5009206;28;20029;-77
2022/12/04 01:49:33;;;;;;;85.15;28.13;;;;;;;1.08;100.00;101445.06;5004761;28;20038;-77
2022/12/04 01:52:04;;;;;;;81.22;27.33;;;;;;;1.15;100.00;101440.34;4996937;28;20431;-78
2022/12/04 01:54:41;;;;;;;90.03;29.65;;;;;;;0.91;100.00;101439.28;5005630;28;20182;-77
2022/12/04 01:57:13;;;;;;;87.28;28.98;;;;;;;1.01;100.00;101447.97;4989667;28;20117;-77
2022/12/04 01:59:46;;;;;;;86.85;30.20;;;;;;;0.94;100.00;101439.19;4985932;28;20026;-76
2022/12/04 02:02:16;;;;;;;78.22;26.40;;;;;;;0.98;100.00;101438.16;4997134;28;20457;-77
2022/12/04 02:04:42;;;;;;;88.45;29.90;;;;;;;1.01;100.00;101435.34;4995985;28;20042;-77
2022/12/04 02:07:08;;;;;;;81.53;28.13;;;;;;;1.06;100.00;101435.22;4986550;28;20038;-77
2022/12/04 02:09:35;;;;;;;81.18;29.20;;;;;;;1.00;100.00;101435.41;4965731;28;20076;-77
2022/12/04 02:12:16;;;;;;;84.45;30.00;;;;;;;0.97;100.00;101432.78;4992429;28;20414;-77
2022/12/04 02:14:57;;;;;;;88.35;29.10;;;;;;;0.97;100.00;101431.00;5013608;28;20048;-78
2022/12/04 02:17:46;;;;;;;94.95;28.85;;;;;;;0.96;100.00;101433.75;4996341;28;20034;-77
2022/12/04 02:20:21;;;;;;;88.13;28.02;;;;;;;0.96;100.00;101433.75;4996328;28;20038;-77
2022/12/04 02:23:10;;;;;;;88.18;29.52;;;;;;;1.00;100.00;101421.91;5011717;28;20117;-77
2022/12/04 02:25:46;;;;;;;82.57;28.17;;;;;;;1.00;100.00;101416.53;5012726;28;20038;-77
2022/12/04 02:28:39;;;;;;;92.68;29.75;;;;;;;1.01;100.00;101416.47;5015247;28;20034;-78
2022/12/04 02:31:09;;;;;;;85.72;29.80;;;;;;;1.09;100.00;101418.97;5012923;28;20391;-77
2022/12/04 02:33:44;;;;;;;80.82;28.67;;;;;;;1.02;100.00;101417.41;5004013;28;20026;-77
2022/12/04 02:36:20;;;;;;;89.63;28.92;;;;;;;1.06;100.00;101419.91;5008279;28;20518;-77
2022/12/04 02:39:08;;;;;;;88.47;29.80;;;;;;;0.99;100.00;101418.34;5009259;28;20029;-78
2022/12/04 02:42:00;;;;;;;85.90;28.63;;;;;;;1.14;100.00;101417.00;5015445;28;20054;-77
2022/12/04 02:44:36;;;;;;;91.60;29.77;;;;;;;1.06;100.00;101413.66;5008300;28;20036;-77
2022/12/04 02:47:06;;;;;;;90.85;31.75;;;;;;;0.88;100.00;101417.78;5017603;28;20033;-77
2022/12/04 02:49:44;;;;;;;87.93;28.95;;;;;;;1.00;100.00;101422.81;5005899;28;20026;-77
2022/12/04 02:52:15;;;;;;;82.90;29.17;;;;;;;0.91;100.00;101432.06;4995934;28;20482;-76
2022/12/04 02:54:49;;;;;;;89.03;30.63;;;;;;;0.91;100.00;101426.66;5013698;28;20371;-77
2022/12/04 02:57:20;;;;;;;88.13;30.92;;;;;;;0.95;100.00;101426.56;5016596;28;20029;-77
2022/12/04 02:59:48;;;;;;;94.20;29.38;;;;;;;1.09;100.00;101421.66;5000319;28;20039;-77
2022/12/04 03:02:18;;;;;;;88.15;30.42;;;;;;;0.95;100.00;101426.56;4980235;28;20133;-77
2022/12/04 03:04:49;;;;;;;87.43;30.95;;;;;;;0.96;100.00;101431.03;4991953;28;20034;-77
2022/12/04 03:07:28;;;;;;;79.32;28.38;;;;;;;0.91;100.00;101415.00;4998717;28;20026;-77
2022/12/04 03:09:58;;;;;;;85.22;29.25;;;;;;;0.97;100.00;101416.63;4999290;28;20021;-76
2022/12/04 03:12:49;;;;;;;95.70;31.05;;;;;;;0.91;100.00;101412.31;5005840;28;20044;-78
2022/12/04 03:15:17;;;;;;;102.93;30.92;;;;;;;0.98;100.00;101407.63;5010273;28;20026;-77
2022/12/04 03:18:12;;;;;;;105.28;32.03;;;;;;;1.02;100.00;101423.66;5009265;28;20040;-76
2022/12/04 03:20:38;;;;;;;104.82;30.65;;;;;;;1.09;100.00;101421.66;4984092;28;20050;-77
2022/12/04 03:23:19;;;;;;;86.53;29.70;;;;;;;1.01;100.00;101421.00;4997206;28;20061;-77
2022/12/04 03:25:55;;;;;;;90.68;29.98;;;;;;;1.02;100.00;101415.56;4989586;28;20034;-77
2022/12/04 03:28:48;;;;;;;93.40;31.27;;;;;;;1.12;100.00;101413.47;5012273;28;20098;-77
2022/12/04 03:31:19;;;;;;;97.30;31.35;;;;;;;1.14;100.00;101413.44;5004558;28;20522;-77
2022/12/04 03:33:46;;;;;;;95.70;31.27;;;;;;;1.02;100.00;101410.19;4986809;28;20041;-77
2022/12/04 03:36:19;;;;;;;91.38;29.77;;;;;;;0.97;100.00;101412.13;4984848;28;20030;-78
2022/12/04 03:38:53;;;;;;;94.57;31.55;;;;;;;1.02;100.00;101409.31;5002757;28;20084;-77
2022/12/04 03:41:29;;;;;;;97.00;30.63;;;;;;;0.98;100.00;101405.78;4995069;28;20049;-77
2022/12/04 03:44:07;;;;;;;87.88;29.30;;;;;;;1.04;100.00;101410.13;4998795;28;20057;-78
2022/12/04 03:46:57;;;;;;;89.30;29.27;;;;;;;0.97;100.00;101405.84;5013914;28;20044;-77
2022/12/04 03:49:40;;;;;;;91.72;29.92;;;;;;;1.07;100.00;101408.22;4997080;28;20049;-77
2022/12/04 03:52:31;;;;;;;88.75;30.67;;;;;;;1.02;100.00;101418.25;4998642;28;20038;-78
2022/12/04 03:55:03;;;;;;;90.25;28.75;;;;;;;1.09;100.00;101411.75;4997300;28;20110;-77
2022/12/04 03:57:33;;;;;;;87.30;30.55;;;;;;;1.15;100.00;101413.38;4980199;28;20034;-77
2022/12/04 04:00:13;;;;;;;93.80;32.15;;;;;;;1.09;100.00;101411.75;4991757;28;20034;-77
2022/12/04 04:02:46;;;;;;;89.78;31.50;;;;;;;1.06;100.00;101403.75;4983587;28;20109;-78
2022/12/04 04:05:13;;;;;;;97.88;31.77;;;;;;;1.08;100.00;101404.59;5009000;28;20379;-77
2022/12/04 04:08:24;;;;;;;85.22;30.02;;;;;;;1.06;100.00;101403.75;4999734;28;20041;-78
2022/12/04 04:10:47;;;;;;;92.00;30.77;;;;;;;1.04;100.00;101402.91;5009951;28;20038;-77
2022/12/04 04:24:25;;;;;;;96.05;31.15;;;;;;;1.04;100.00;101405.63;5004733;28;20129;-77
2022/12/04 04:26:51;;;;;;;97.18;31.60;;;;;;;1.02;100.00;101404.78;4986835;28;20049;-77
2022/12/04 04:29:16;;;;;;;84.78;29.33;;;;;;;1.04;100.00;101412.81;4999694;28;20034;-77
2022/12/04 04:31:49;;;;;;;84.25;30.65;;;;;;;0.94;100.00;101400.56;4995167;28;20041;-77
2022/12/04 04:34:23;;;;;;;91.30;29.77;;;;;;;0.97;100.00;101405.84;5003213;28;20039;-76
2022/12/04 04:36:57;;;;;;;95.65;29.60;;;;;;;1.02;100.00;101399.38;4999776;28;20541;-77
2022/12/04 04:39:43;;;;;;;86.88;30.45;;;;;;;1.01;100.00;101397.63;4998900;28;20038;-77
2022/12/04 04:42:31;;;;;;;98.15;30.10;;;;;;;1.00;100.00;101405.75;4990117;28;20038;-77
2022/12/04 04:45:30;;;;;;;94.20;31.88;;;;;;;0.99;100.00;101399.47;4973158;28;20117;-77
2022/12/04 04:48:01;;;;;;;97.03;29.80;;;;;;;0.99;100.00;101391.41;4993698;28;20049;-77
2022/12/04 04:50:28;;;;;;;96.53;30.10;;;;;;;1.02;100.00;101391.31;4982701;28;20026;-77
2022/12/04 04:53:00;;;;;;;102.28;31.70;;;;;;;0.88;100.00;101390.84;4997768;28;20049;-76
2022/12/04 04:55:26;;;;;;;92.07;29.30;;;;;;;0.99;100.00;101393.22;4995703;28;20050;-77
2022/12/04 04:57:51;;;;;;;92.35;30.55;;;;;;;0.95;100.00;101407.69;4972430;28;20090;-77
2022/12/04 05:00:20;;;;;;;90.13;29.77;;;;;;;0.99;100.00;101409.38;4978280;28;20438;-77
2022/12/04 05:02:49;;;;;;;106.97;34.22;;;;;;;1.06;100.00;101405.56;4978890;28;20118;-77
2022/12/04 05:05:15;;;;;;;90.78;31.50;;;;;;;1.09;100.00;101411.75;4953717;28;20133;-77
2022/12/04 05:07:41;;;;;;;98.72;33.42;;;;;;;1.04;100.00;101412.81;4981978;28;20363;-78
2022/12/04 05:10:07;;;;;;;101.60;32.88;;;;;;;0.96;100.00;101401.38;4993662;28;20038;-77
2022/12/04 05:12:33;;;;;;;96.55;31.33;;;;;;;0.97;100.00;101412.13;4996923;28;20447;-77
2022/12/04 05:14:58;;;;;;;103.10;32.17;;;;;;;0.93;100.00;101405.06;4999398;28;20018;-77
2022/12/04 05:17:24;;;;;;;88.20;30.40;;;;;;;0.99;100.00;101407.56;4987719;28;20057;-77
2022/12/04 05:19:53;;;;;;;87.38;28.77;;;;;;;1.08;100.00;101410.00;4976220;28;20038;-78
2022/12/04 05:22:40;;;;;;;97.05;30.20;;;;;;;1.02;100.00;101402.09;4974847;28;20035;-77
2022/12/04 05:25:06;;;;;;;91.38;29.38;;;;;;;1.08;100.00;101399.22;4996435;28;20053;-76
2022/12/04 05:27:32;;;;;;;96.32;32.25;;;;;;;0.99;100.00;101401.31;4997524;28;20031;-77
2022/12/04 05:29:58;;;;;;;93.28;31.23;;;;;;;0.99;100.00;101401.31;4999066;28;20038;-77
2022/12/04 05:32:27;;;;;;;95.72;30.42;;;;;;;0.96;100.00;101398.69;4997404;28;20042;-77
2022/12/04 05:34:54;;;;;;;101.40;33.25;;;;;;;1.03;100.00;101401.16;4978151;28;20034;-77
2022/12/04 05:37:20;;;;;;;102.10;31.58;;;;;;;1.01;100.00;101402.13;4997000;28;20034;-76
2022/12/04 05:39:46;;;;;;;99.68;29.73;;;;;;;1.04;100.00;101400.22;4966672;28;20042;-76
2022/12/04 05:42:12;;;;;;;100.07;31.63;;;;;;;1.03;100.00;101389.47;5000974;28;20033;-76
2022/12/04 05:44:38;;;;;;;100.63;31.75;;;;;;;1.04;100.00;101404.75;5005376;28;20034;-76
2022/12/04 05:47:03;;;;;;;104.80;33.40;;;;;;;1.02;100.00;101401.22;5009071;28;20029;-76
2022/12/04 05:49:30;;;;;;;84.47;29.30;;;;;;;1.03;100.00;101397.56;5005905;28;20088;-77
2022/12/04 05:51:56;;;;;;;99.65;31.67;;;;;;;1.10;100.00;101396.47;4984085;28;20056;-76
2022/12/04 05:54:21;;;;;;;92.22;31.13;;;;;;;1.01;100.00;101394.91;4985131;28;20034;-77
2022/12/04 05:56:47;;;;;;;88.95;31.02;;;;;;;1.06;100.00;101387.56;4984942;28;20072;-76
2022/12/04 05:59:13;;;;;;;95.70;31.27;;;;;;;1.03;100.00;101385.00;5008318;28;20033;-76
2022/12/04 06:01:38;;;;;;;81.90;28.83;;;;;;;1.05;100.00;101380.44;5009147;28;20029;-77
2022/12/04 06:04:04;;;;;;;94.75;32.70;;;;;;;1.02;100.00;101388.59;4983759;28;20044;-77
2022/12/04 06:06:30;;;;;;;95.35;29.80;;;;;;;1.04;100.00;101381.34;5022801;28;20045;-77
2022/12/04 06:08:57;;;;;;;90.88;30.80;;;;;;;1.09;100.00;101390.16;5002939;28;20062;-77
2022/12/04 06:11:32;;;;;;;91.78;30.02;;;;;;;1.04;100.00;101378.66;5000120;28;20030;-77
2022/12/04 06:13:59;;;;;;;89.88;30.73;;;;;;;1.04;100.00;101375.06;5003338;28;20034;-76
2022/12/04 06:16:27;;;;;;;89.40;31.05;;;;;;;1.07;100.00;101377.69;5027139;28;20053;-78
2022/12/04 06:18:57;;;;;;;87.88;30.23;;;;;;;0.99;100.00;101382.44;5010261;28;20500;-77
2022/12/04 06:21:27;;;;;;;89.72;30.20;;;;;;;1.02;100.00;101390.44;5034830;28;20047;-76
2022/12/04 06:23:52;;;;;;;88.47;29.60;;;;;;;1.04;100.00;101381.34;5017624;28;20029;-76
2022/12/04 06:26:21;;;;;;;87.25;29.27;;;;;;;1.07;100.00;101389.34;5030977;28;20045;-78
2022/12/04 06:28:52;;;;;;;95.75;32.72;;;;;;;1.16;100.00;101379.19;4995961;28;20508;-78
2022/12/04 06:31:17;;;;;;;94.22;31.13;;;;;;;1.04;100.00;101391.25;5024174;28;20045;-78
2022/12/04 06:33:43;;;;;;;90.07;29.05;;;;;;;1.08;100.00;101395.59;4998132;28;20049;-78
2022/12/04 06:36:15;;;;;;;89.03;30.02;;;;;;;1.09;100.00;101398.25;4998456;28;20026;-77
2022/12/04 06:38:41;;;;;;;87.47;30.10;;;;;;;1.00;100.00;101395.88;5033266;28;20064;-77
2022/12/04 06:41:10;;;;;;;88.72;28.83;;;;;;;1.04;100.00;101402.03;5010463;28;20053;-77
2022/12/04 06:43:35;;;;;;;83.90;28.98;;;;;;;1.01;100.00;101402.13;4978189;28;20104;-77
2022/12/04 06:46:05;;;;;;;79.78;27.88;;;;;;;1.06;100.00;101394.78;4985550;28;20039;-77
2022/12/04 06:48:32;;;;;;;77.93;28.42;;;;;;;1.16;100.00;101393.56;4968657;28;20046;-77
2022/12/04 06:51:06;;;;;;;79.85;27.05;;;;;;;1.14;100.00;101392.72;5006573;28;20485;-78
2022/12/04 06:53:33;;;;;;;81.45;29.15;;;;;;;1.04;100.00;101396.66;5013881;28;20037;-77
2022/12/04 06:56:00;;;;;;;85.47;29.25;;;;;;;0.99;100.00;101390.53;5005750;28;20427;-77
2022/12/04 06:58:26;;;;;;;85.35;30.42;;;;;;;0.91;100.00;101386.22;4996474;28;20076;-77
2022/12/04 07:00:52;;;;;;;81.68;26.48;;;;;;;1.04;100.00;101400.22;4997392;28;20470;-77
2022/12/04 07:03:18;;;;;;;79.95;26.95;;;;;;;0.98;100.00;101410.31;4984339;28;20044;-77
2022/12/04 07:05:44;;;;;;;83.05;27.55;;;;;;;0.94;100.00;101409.53;5001744;28;20042;-77
2022/12/04 07:08:10;;;;;;;79.93;27.65;;;;;;;0.94;100.00;101406.84;4997351;28;20086;-78
2022/12/04 07:10:36;;;;;;;88.13;28.83;;;;;;;0.99;100.00;101410.25;4981753;28;20035;-77
2022/12/04 07:13:02;;;;;;;75.35;27.30;;;;;;;0.99;100.00;101417.47;4992885;28;20049;-77
2022/12/04 07:15:28;;;;;;;71.28;26.85;;;;;;;0.99;100.00;101415.66;4998095;28;20037;-77
2022/12/04 07:17:53;;;;;;;81.07;27.10;;;;;;;1.02;100.00;101414.69;4977368;28;20494;-77
2022/12/04 07:20:19;;;;;;;84.25;27.73;;;;;;;1.00;100.00;101427.31;4967294;28;20122;-77
2022/12/04 07:22:44;;;;;;;81.10;26.95;;;;;;;1.00;100.00;101419.22;4996455;28;20053;-78
2022/12/04 07:25:10;;;;;;;79.13;25.25;;;;;;;1.03;100.00;101416.44;4987803;28;20054;-77
2022/12/04 07:27:35;;;;;;;69.40;25.10;;;;;;;1.10;100.00;101429.69;4996261;28;20070;-77
2022/12/04 07:30:03;;;;;;;68.50;25.52;;;;;;;1.10;100.00;101431.53;4969933;28;20069;-77
2022/12/04 07:32:28;;;;;;;80.25;27.20;;;;;;;1.07;100.00;101427.09;4989753;28;20038;-78
2022/12/04 07:34:54;;;;;;;67.18;24.85;;;;;;;1.02;100.00;101426.34;4996929;28;20054;-77
2022/12/04 07:37:19;;;;;;;73.70;26.08;;;;;;;1.05;100.00;101436.16;4964288;28;20042;-77
2022/12/04 07:39:45;;;;;;;74.72;27.48;;;;;;;1.24;100.00;101431.09;4996271;28;20041;-78
2022/12/04 07:42:10;;;;;;;70.60;25.70;;;;;;;1.10;100.00;101434.22;4989310;28;20104;-77
2022/12/04 07:44:36;;;;;;;70.60;25.60;;;;;;;1.14;100.00;101435.88;4980503;28;20066;-77
2022/12/04 07:47:04;;;;;;;70.78;26.30;;;;;;;1.16;100.00;101434.00;5002782;28;20034;-77
2022/12/04 07:49:31;;;;;;;82.97;26.95;;;;;;;1.23;100.00;101435.59;4970359;28;20089;-77
2022/12/04 07:51:57;;;;;;;76.68;26.02;;;;;;;1.08;100.00;101433.34;4965366;28;20034;-76
2022/12/04 07:54:23;;;;;;;70.80;25.33;;;;;;;1.23;100.00;101451.78;4996699;28;20042;-77
2022/12/04 07:56:49;;;;;;;65.38;23.90;;;;;;;1.18;100.00;101440.25;4983038;28;20183;-77
2022/12/04 07:59:15;;;;;;;70.82;25.58;;;;;;;1.21;100.00;101444.66;4984146;28;20110;-77
2022/12/04 08:01:41;;;;;;;73.70;25.80;;;;;;;1.14;100.00;101454.75;4992569;28;20076;-76
2022/12/04 08:04:10;;;;;;;76.32;26.65;;;;;;;1.18;100.00;101448.34;4994653;28;20034;-77
2022/12/04 08:06:36;;;;;;;63.50;24.17;;;;;;;1.18;100.00;101458.22;5001861;28;20030;-77
2022/12/04 08:09:04;;;;;;;62.72;22.63;;;;;;;1.15;100.00;101452.94;5000765;28;20046;-77
2022/12/04 08:11:31;;;;;;;73.13;25.42;;;;;;;1.39;100.00;101462.09;4983593;28;20035;-77
2022/12/04 08:14:04;;;;;;;72.93;25.70;;;;;;;1.34;100.00;101462.22;4988721;28;20068;-77
2022/12/04 08:16:31;;;;;;;68.38;24.50;;;;;;;1.17;100.00;101449.28;4982157;28;20572;-78
2022/12/04 08:18:59;;;;;;;59.45;23.02;;;;;;;1.18;100.00;101447.44;4999199;28;20022;-78
2022/12/04 08:21:28;;;;;;;64.65;22.27;;;;;;;1.36;100.00;101452.28;5011591;28;20053;-77
2022/12/04 08:23:56;;;;;;;62.33;23.15;;;;;;;1.28;100.00;101448.97;4998704;28;20486;-76
2022/12/04 08:26:24;;;;;;;61.92;23.20;;;;;;;1.25;100.00;101446.34;5006322;28;20026;-76
2022/12/04 08:28:56;;;;;;;58.03;22.63;;;;;;;1.24;100.00;101437.34;4982923;28;20394;-75
2022/12/04 08:31:25;;;;;;;65.38;23.88;;;;;;;1.27;100.00;101445.34;4996131;28;20026;-75
2022/12/04 08:33:53;;;;;;;53.92;20.67;;;;;;;1.34;100.00;101440.66;4997713;28;20041;-76
2022/12/04 08:36:20;;;;;;;61.25;22.83;;;;;;;1.29;100.00;101440.78;5003469;28;20018;-77
2022/12/04 08:38:47;;;;;;;55.00;20.75;;;;;;;1.36;100.00;101441.50;4990422;28;20089;-77
2022/12/04 08:41:15;;;;;;;62.47;20.98;;;;;;;1.33;100.00;101436.19;4997435;28;20082;-77
2022/12/04 08:43:42;;;;;;;63.20;22.30;;;;;;;1.29;100.00;101438.09;4984616;28;20129;-79
2022/12/04 08:46:11;;;;;;;57.55;22.20;;;;;;;1.31;100.00;101427.25;5000137;28;20046;-76
2022/12/04 08:48:37;;;;;;;66.80;23.13;;;;;;;1.31;100.00;101435.34;5002086;28;20817;-79
2022/12/04 08:51:03;;;;;;;57.85;21.27;;;;;;;1.34;100.00;101437.94;5021362;28;20054;-78
2022/12/04 08:53:30;;;;;;;64.38;21.63;;;;;;;1.24;100.00;101428.38;4988412;28;20034;-79
2022/12/04 08:55:56;;;;;;;57.15;21.88;;;;;;;1.36;100.00;101448.69;5021082;28;20033;-79
2022/12/04 08:58:22;;;;;;;53.97;21.38;;;;;;;1.33;100.00;101432.59;5014904;28;20057;-79
2022/12/04 09:00:47;;;;;;;61.13;21.35;;;;;;;1.36;100.00;101446.00;5002110;28;20053;-80
2022/12/04 09:03:19;;;;;;;56.67;21.73;;;;;;;1.39;100.00;101430.59;5007517;28;20128;-79
2022/12/04 09:05:45;;;;;;;55.28;21.10;;;;;;;1.46;100.00;101444.81;5013688;28;20082;-79
2022/12/04 09:08:11;;;;;;;52.70;20.17;;;;;;;1.47;100.00;101449.25;5007800;28;20122;-78
2022/12/04 09:10:37;;;;;;;58.50;20.75;;;;;;;1.47;100.00;101451.94;4987781;28;20125;-79
2022/12/04 09:13:03;;;;;;;51.60;18.15;;;;;;;1.55;100.00;101446.31;4985483;28;20065;-79
2022/12/04 09:15:29;;;;;;;58.95;23.25;;;;;;;1.38;100.00;101457.66;4975486;28;20041;-79
2022/12/04 09:17:55;;;;;;;53.97;21.15;;;;;;;1.35;100.00;101446.94;5012083;28;20721;-79
2022/12/04 09:20:21;;;;;;;61.33;22.63;;;;;;;1.33;100.00;101451.47;5016421;28;20538;-78
2022/12/04 09:22:46;;;;;;;62.90;24.08;;;;;;;1.40;100.00;101458.47;4986486;28;20519;-77
2022/12/04 09:25:12;;;;;;;59.47;22.30;;;;;;;1.36;100.00;101446.00;5007729;28;20049;-78
2022/12/04 09:27:40;;;;;;;67.00;23.65;;;;;;;1.42;100.00;101451.22;5004834;28;20116;-78
2022/12/04 09:30:10;;;;;;;57.13;22.20;;;;;;;1.37;100.00;101450.47;5005613;28;20088;-78
2022/12/04 09:32:36;;;;;;;59.63;23.65;;;;;;;1.35;100.00;101452.34;4996289;28;20374;-77
2022/12/04 09:35:02;;;;;;;74.85;25.33;;;;;;;1.26;100.00;101449.00;4999115;28;20023;-78
2022/12/04 09:37:28;;;;;;;55.20;22.33;;;;;;;1.33;100.00;101459.56;4997192;28;20052;-77
2022/12/04 09:44:02;;;;;;;65.03;23.85;;;;;;;1.33;100.00;101446.09;5015616;28;20517;-77
2022/12/04 09:46:32;;;;;;;59.15;22.77;;;;;;;1.43;100.00;101444.88;4992367;28;20088;-76
2022/12/04 09:52:25;;;;;;;62.72;24.55;;;;;;;1.33;100.00;101457.78;5000541;28;20030;-76
2022/12/04 09:54:52;;;;;;;65.32;24.58;;;;;;;1.33;100.00;101457.78;5008480;28;20037;-77
2022/12/04 09:57:36;;;;;;;60.75;23.83;;;;;;;1.49;100.00;101454.59;5009407;28;20034;-76
2022/12/04 10:00:04;;;;;;;56.20;22.65;;;;;;;1.37;100.00;101453.16;5002503;28;20037;-76
2022/12/04 10:02:35;;;;;;;67.03;26.63;;;;;;;1.40;100.00;101453.06;5003568;28;20442;-76
2022/12/04 10:05:01;;;;;;;69.45;27.08;;;;;;;1.41;100.00;101455.72;5006077;28;20045;-77
2022/12/04 10:07:45;;;;;;;70.60;26.27;;;;;;;1.38;100.00;101455.81;5010926;28;20410;-76
2022/12/04 10:10:16;;;;;;;66.35;25.95;;;;;;;1.54;100.00;101449.94;5007654;28;20493;-76
2022/12/04 10:13:10;;;;;;;66.93;26.45;;;;;;;1.47;100.00;101438.44;4984606;28;20089;-76
2022/12/04 10:15:49;;;;;;;67.28;25.73;;;;;;;1.47;100.00;101439.31;5006073;28;20034;-77
2022/12/04 10:18:17;;;;;;;59.72;23.58;;;;;;;1.44;100.00;101449.34;4987770;28;20026;-77
2022/12/04 10:20:42;;;;;;;71.35;26.33;;;;;;;1.45;100.00;101448.41;4989612;28;20038;-76
2022/12/04 10:23:08;;;;;;;67.60;27.30;;;;;;;1.39;100.00;101446.78;4975568;28;20088;-76
2022/12/04 10:25:37;;;;;;;65.20;28.70;;;;;;;1.42;100.00;101433.19;4981295;28;20046;-77
2022/12/04 10:28:14;;;;;;;73.70;28.42;;;;;;;1.40;100.00;101448.56;4991890;28;20031;-76
2022/12/04 10:30:41;;;;;;;60.38;24.67;;;;;;;1.34;100.00;101448.75;4999765;28;20460;-77
2022/12/04 10:33:27;;;;;;;71.85;28.23;;;;;;;1.39;100.00;101454.00;5001310;28;20092;-76
2022/12/04 10:35:54;;;;;;;66.45;27.92;;;;;;;1.47;100.00;101460.03;5004439;28;20045;-77
2022/12/04 10:38:34;;;;;;;67.82;28.17;;;;;;;1.42;100.00;101464.69;5000308;28;20049;-77
2022/12/04 10:41:15;;;;;;;70.53;28.63;;;;;;;1.50;100.00;101459.94;4998199;28;20038;-77
2022/12/04 10:43:48;;;;;;;68.15;28.65;;;;;;;1.51;100.00;101450.94;5011663;28;20393;-77
2022/12/04 10:46:24;;;;;;;67.68;27.35;;;;;;;1.55;100.00;101460.69;5016045;28;20397;-77
2022/12/04 10:49:18;;;;;;;68.63;28.00;;;;;;;1.51;100.00;101450.03;5014950;28;20049;-77
2022/12/04 10:51:44;;;;;;;79.53;28.95;;;;;;;1.45;100.00;101446.59;4992699;28;20057;-77
2022/12/04 10:54:25;;;;;;;72.07;28.73;;;;;;;1.43;100.00;101436.78;5014394;28;20056;-77
2022/12/04 10:59:28;;;;;;;69.25;28.38;;;;;;;1.55;100.00;101432.81;5921952;23;20387;-76
2022/12/04 11:02:12;;;;;;;76.05;29.02;;;;;;;1.63;100.00;101428.94;5003780;28;20038;-77
2022/12/04 11:10:02;;;;;;;60.85;26.27;;;;;;;1.80;100.00;101424.78;5654636;23;20058;-76
2022/12/04 11:12:28;;;;;;;67.70;27.83;;;;;;;1.72;100.00;101425.06;4970427;28;20030;-77
2022/12/04 11:15:20;;;;;;;60.40;25.27;;;;;;;1.62;100.00;101424.47;4978098;28;20078;-78
2022/12/04 11:17:48;;;;;;;70.78;26.73;;;;;;;1.75;100.00;101422.22;4976603;28;20085;-77
2022/12/04 11:20:26;;;;;;;63.00;27.23;;;;;;;1.67;100.00;101413.50;4977697;28;20393;-77
2022/12/04 11:22:57;;;;;;;70.25;28.60;;;;;;;1.55;100.00;101406.69;4978121;28;20057;-77
2022/12/04 11:25:33;;;;;;;73.93;29.45;;;;;;;1.59;100.00;101405.69;4982592;28;20038;-77
2022/12/04 11:28:01;;;;;;;66.50;27.95;;;;;;;1.63;100.00;101407.34;4971537;28;20081;-77
2022/12/04 11:30:35;;;;;;;67.35;28.02;;;;;;;1.67;100.00;101405.41;4978826;28;20409;-78
2022/12/04 11:33:03;;;;;;;74.35;27.17;;;;;;;1.73;100.00;101410.63;4969087;28;20031;-78
2022/12/04 11:35:30;;;;;;;63.17;26.95;;;;;;;1.64;100.00;101402.81;4942410;29;20562;-78
2022/12/04 11:38:03;;;;;;;68.00;27.50;;;;;;;1.67;100.00;101405.41;4979075;28;20041;-77
2022/12/04 11:40:29;;;;;;;66.55;26.38;;;;;;;1.65;100.00;101415.38;4978410;28;20174;-77
2022/12/04 11:43:16;;;;;;;62.97;26.33;;;;;;;1.67;100.00;101401.84;4987624;28;20110;-78
2022/12/04 11:46:18;;;;;;;59.95;26.73;;;;;;;1.54;100.00;101404.97;4978495;28;20030;-77
2022/12/04 11:48:44;;;;;;;66.85;27.88;;;;;;;1.62;100.00;101394.78;4972610;28;20039;-77
2022/12/04 11:51:33;;;;;;;66.30;27.42;;;;;;;1.58;100.00;101403.03;4975962;28;20107;-78